createdAt,value
2019-03-19T00:00:02.888Z,1.64
2019-03-19T00:10:02.930Z,1.49
2019-03-19T00:20:02.744Z,1.43
2019-03-19T00:30:02.987Z,1.35
2019-03-19T00:40:02.989Z,1.29
2019-03-19T00:50:02.452Z,1.44
2019-03-19T01:00:02.902Z,1.46
2019-03-19T01:10:02.678Z,1.53
2019-03-19T01:20:02.609Z,1.50
2019-03-19T01:30:03.070Z,1.56
2019-03-19T01:40:03.237Z,1.43
2019-03-19T01:50:02.868Z,1.34
2019-03-19T02:00:03.112Z,1.15
2019-03-19T02:10:02.659Z,0.83
2019-03-19T02:20:02.830Z,0.68
2019-03-19T02:30:03.023Z,0.68
2019-03-19T02:40:02.493Z,0.63
2019-03-19T02:50:02.955Z,0.64
2019-03-19T03:00:02.683Z,0.59
2019-03-19T03:10:02.499Z,0.68
2019-03-19T03:20:02.247Z,0.60
2019-03-19T03:30:03.791Z,0.54
2019-03-19T03:40:03.029Z,0.69
2019-03-19T03:50:02.908Z,0.65
2019-03-19T04:00:03.242Z,0.75
2019-03-19T04:10:03.041Z,0.90
2019-03-19T04:20:03.288Z,0.99
2019-03-19T04:30:03.053Z,1.00
2019-03-19T04:40:02.285Z,1.45
2019-03-19T04:50:03.120Z,1.62
2019-03-19T05:00:03.605Z,1.59
2019-03-19T05:10:03.068Z,1.65
2019-03-19T05:20:03.184Z,1.64
2019-03-19T05:30:03.243Z,1.68
2019-03-19T05:40:02.446Z,1.87
2019-03-19T05:50:03.250Z,1.94
2019-03-19T06:00:03.611Z,2.37
2019-03-19T06:10:02.459Z,2.25
2019-03-19T06:20:02.254Z,2.29
2019-03-19T06:30:03.476Z,2.52
2019-03-19T06:40:02.656Z,2.68
2019-03-19T06:50:02.180Z,3.16
2019-03-19T07:00:03.729Z,3.51
2019-03-19T07:10:02.229Z,3.60
2019-03-19T07:20:03.359Z,3.67
2019-03-19T07:30:03.625Z,3.51
2019-03-19T07:40:02.494Z,3.72
2019-03-19T07:50:02.123Z,3.82
2019-03-19T08:00:03.448Z,4.37
2019-03-19T08:10:02.236Z,4.64
2019-03-19T08:20:03.123Z,5.23
2019-03-19T08:30:03.037Z,4.77
2019-03-19T08:40:03.569Z,5.60
2019-03-19T08:50:03.104Z,5.29
2019-03-19T09:00:02.884Z,6.55
2019-03-19T09:10:03.327Z,7.89
2019-03-19T09:20:02.509Z,8.48
2019-03-19T09:30:04.574Z,10.21
2019-03-19T09:40:02.649Z,8.42
2019-03-19T09:50:02.580Z,6.35
2019-03-19T10:00:03.616Z,7.95
2019-03-19T10:10:02.359Z,8.78
2019-03-19T10:20:02.686Z,7.16
2019-03-19T10:30:03.591Z,5.97
2019-03-19T10:40:02.473Z,6.13
2019-03-19T10:50:03.018Z,6.97
2019-03-19T11:00:03.018Z,10.16
2019-03-19T11:10:02.619Z,8.38
2019-03-19T11:20:02.943Z,7.13
2019-03-19T11:30:02.760Z,7.23
2019-03-19T11:40:03.412Z,7.00
2019-03-19T11:50:02.239Z,8.67
2019-03-19T12:00:10.640Z,7.38
2019-03-19T12:10:02.872Z,7.82
2019-03-19T12:20:02.699Z,8.02
2019-03-19T12:30:02.693Z,7.41
2019-03-19T12:40:03.069Z,7.49
2019-03-19T12:50:02.904Z,7.88
2019-03-19T13:00:02.832Z,7.91
2019-03-19T13:10:03.090Z,7.73
2019-03-19T13:20:03.087Z,7.29
2019-03-19T13:30:03.372Z,7.25
2019-03-19T13:40:02.763Z,7.68
2019-03-19T13:50:02.670Z,7.40
2019-03-19T14:00:03.006Z,8.29
2019-03-19T14:10:02.313Z,7.20
2019-03-19T14:20:02.606Z,7.32
2019-03-19T14:30:03.513Z,7.49
2019-03-19T14:40:02.854Z,8.52
2019-03-19T14:50:03.027Z,9.15
2019-03-19T15:00:03.592Z,8.56
2019-03-19T15:10:02.661Z,8.44
2019-03-19T15:20:03.074Z,7.58
2019-03-19T15:30:03.624Z,7.41
2019-03-19T15:40:02.375Z,7.24
2019-03-19T15:50:03.380Z,7.62
2019-03-19T16:00:04.024Z,8.22
2019-03-19T16:10:02.686Z,8.16
2019-03-19T16:20:02.927Z,7.50
2019-03-19T16:30:03.460Z,7.47
2019-03-19T16:40:02.593Z,7.25
2019-03-19T16:50:02.475Z,7.10
2019-03-19T17:00:03.113Z,7.20
2019-03-19T17:10:02.178Z,6.74
2019-03-19T17:20:03.233Z,5.88
2019-03-19T17:30:03.615Z,5.37
2019-03-19T17:40:02.709Z,5.24
2019-03-19T17:50:03.066Z,4.92
2019-03-19T18:00:03.655Z,4.93
2019-03-19T18:10:02.295Z,4.30
2019-03-19T18:20:03.416Z,3.83
2019-03-19T18:30:03.202Z,3.24
2019-03-19T18:40:02.510Z,3.29
2019-03-19T18:50:02.166Z,3.80
2019-03-19T19:00:04.617Z,3.13
2019-03-19T19:10:02.224Z,2.60
2019-03-19T19:20:03.454Z,3.06
2019-03-19T19:30:02.875Z,2.80
2019-03-19T19:40:02.150Z,2.52
2019-03-19T19:50:02.801Z,2.18
2019-03-19T20:00:03.369Z,1.34
2019-03-19T20:10:02.909Z,1.21
2019-03-19T20:20:02.783Z,1.13
2019-03-19T20:30:03.089Z,1.06
2019-03-19T20:40:03.041Z,1.20
2019-03-19T20:50:02.755Z,1.05
2019-03-19T21:00:03.273Z,1.24
2019-03-19T21:10:02.277Z,1.22
2019-03-19T21:20:02.123Z,0.94
2019-03-19T21:30:03.547Z,0.79
2019-03-19T21:40:03.025Z,1.07
2019-03-19T21:50:02.612Z,0.99
2019-03-19T22:00:04.045Z,1.09
2019-03-19T22:10:02.729Z,1.24
2019-03-19T22:20:03.343Z,1.36
2019-03-19T22:30:03.295Z,1.35
2019-03-19T22:40:02.851Z,1.29
2019-03-19T22:50:02.572Z,1.35
2019-03-19T23:00:02.859Z,1.25
2019-03-19T23:10:02.601Z,1.44
2019-03-19T23:20:02.495Z,1.60
2019-03-19T23:30:03.046Z,1.37
2019-03-19T23:40:02.195Z,1.02
2019-03-19T23:50:02.500Z,1.10
